Time;durP1;ratioP1;P1;durP2;ratioP2;P2;SDS_P1;SDS_P2;PMS_P1;PMS_P2;Temp;Humidity;BMP_temperature;BMP_pressure;BME280_temperature;BME280_humidity;BME280_pressure;Samples;Min_cycle;Max_cycle;Signal;HPM_P1;HPM_P2
2021/05/22 12:47:49;;;;;;;6.20;0.83;;;18.70;39.00;;;;;;5112878;27;20515;-88
2021/05/22 12:50:17;;;;;;;1.77;0.80;;;17.60;43.70;;;;;;5112823;28;20525;-90
2021/05/22 12:52:51;;;;;;;1.70;0.50;;;17.30;45.50;;;;;;5112805;28;20553;-90
2021/05/22 12:55:21;;;;;;;2.20;0.60;;;17.00;44.30;;;;;;5126589;28;20485;-90
2021/05/22 12:57:47;;;;;;;2.00;1.20;;;17.00;43.10;;;;;;5110968;28;20474;-89
2021/05/22 13:00:16;;;;;;;3.43;1.30;;;17.20;45.00;;;;;;5111804;28;20459;-90
2021/05/22 13:02:54;;;;;;;4.73;0.83;;;17.50;47.40;;;;;;5111667;28;20460;-90
2021/05/22 13:05:23;;;;;;;4.10;1.20;;;17.60;45.00;;;;;;5111123;28;20466;-90
2021/05/22 13:07:51;;;;;;;1.40;0.77;;;17.80;46.30;;;;;;5111890;28;20467;-91
2021/05/22 13:10:20;;;;;;;4.03;0.70;;;17.70;42.90;;;;;;5111948;28;20458;-90
2021/05/22 13:12:55;;;;;;;0.93;0.77;;;17.60;43.60;;;;;;5111757;28;20461;-90
2021/05/22 13:15:22;;;;;;;7.63;0.93;;;17.50;44.00;;;;;;5111245;28;20467;-90
2021/05/22 13:17:51;;;;;;;2.00;0.50;;;17.40;44.50;;;;;;5111419;28;20462;-90
2021/05/22 13:20:21;;;;;;;2.00;0.50;;;17.50;43.50;;;;;;5111888;28;20498;-90
2021/05/22 13:22:48;;;;;;;0.67;0.53;;;17.40;44.10;;;;;;5112533;28;20947;-91
2021/05/22 13:25:16;;;;;;;1.37;0.60;;;17.20;41.20;;;;;;5112516;28;20544;-90
2021/05/22 13:28:07;;;;;;;1.00;0.60;;;17.10;42.20;;;;;;5111337;28;20470;-91
2021/05/22 13:30:35;;;;;;;1.00;0.60;;;17.10;42.30;;;;;;5112963;28;20654;-90
2021/05/22 13:33:03;;;;;;;1.60;0.63;;;17.10;40.60;;;;;;5112218;28;20818;-90
2021/05/22 13:35:31;;;;;;;0.70;0.50;;;17.10;43.00;;;;;;5111929;28;20461;-89
2021/05/22 13:37:59;;;;;;;6.20;0.57;;;17.20;42.70;;;;;;5110467;28;20487;-89
2021/05/22 13:40:31;;;;;;;1.33;0.70;;;17.20;44.40;;;;;;5110433;28;20436;-92
2021/05/22 13:42:58;;;;;;;3.63;0.53;;;17.20;42.80;;;;;;5118767;28;20466;-91
2021/05/22 13:45:25;;;;;;;0.83;0.60;;;17.50;45.90;;;;;;5118069;28;20546;-92
2021/05/22 13:47:52;;;;;;;1.33;0.70;;;17.60;42.30;;;;;;5112731;28;20995;-91
2021/05/22 13:50:18;;;;;;;0.90;0.60;;;17.40;40.60;;;;;;5114265;28;20454;-92
2021/05/22 13:52:46;;;;;;;0.60;0.50;;;17.00;41.00;;;;;;5114016;28;20953;-89
2021/05/22 13:55:15;;;;;;;9.90;0.60;;;17.30;46.20;;;;;;5111478;28;20461;-90
2021/05/22 13:57:41;;;;;;;5.80;2.07;;;17.50;42.90;;;;;;5105543;28;20483;-90
2021/05/22 14:00:09;;;;;;;2.23;0.70;;;17.50;42.70;;;;;;5100003;28;20464;-92
2021/05/22 14:02:35;;;;;;;1.53;0.80;;;17.50;41.80;;;;;;5100442;28;20464;-91
2021/05/22 14:05:02;;;;;;;4.00;0.70;;;17.40;41.60;;;;;;5100540;28;20444;-91
2021/05/22 14:07:28;;;;;;;2.30;0.90;;;17.40;39.90;;;;;;5098521;28;20871;-90
2021/05/22 14:09:56;;;;;;;3.47;0.90;;;17.50;41.60;;;;;;5097938;28;20483;-91
2021/05/22 14:12:22;;;;;;;2.63;0.67;;;17.40;42.50;;;;;;5097854;28;20468;-91
2021/05/22 14:14:49;;;;;;;1.10;0.53;;;17.60;42.60;;;;;;5097978;28;20459;-90
2021/05/22 14:17:15;;;;;;;0.73;0.63;;;17.90;43.50;;;;;;5097880;28;20509;-91
2021/05/22 14:19:42;;;;;;;2.80;0.90;;;17.90;40.60;;;;;;5100514;28;20484;-91
2021/05/22 14:22:09;;;;;;;1.53;0.63;;;17.80;41.00;;;;;;5102195;28;20461;-91
2021/05/22 14:24:37;;;;;;;0.60;0.50;;;17.70;39.10;;;;;;5100832;28;20461;-91
2021/05/22 14:27:05;;;;;;;1.67;0.70;;;17.70;40.70;;;;;;5103085;28;20477;-92
2021/05/22 14:29:32;;;;;;;0.60;0.50;;;17.40;40.30;;;;;;5104573;28;20570;-92
2021/05/22 14:31:58;;;;;;;0.93;0.50;;;17.10;39.80;;;;;;5105127;28;20881;-91
2021/05/22 14:34:24;;;;;;;0.80;0.80;;;17.10;41.90;;;;;;5100029;28;20946;-92
2021/05/22 14:36:53;;;;;;;0.70;0.60;;;17.30;42.20;;;;;;5105603;28;20522;-90
2021/05/22 14:39:20;;;;;;;1.47;0.50;;;17.40;43.10;;;;;;5097758;28;20487;-89
2021/05/22 14:41:47;;;;;;;1.57;0.70;;;17.60;42.10;;;;;;5095600;28;20466;-88
2021/05/22 14:44:15;;;;;;;3.30;1.40;;;17.50;43.60;;;;;;5095332;28;20548;-87
2021/05/22 14:46:42;;;;;;;0.60;0.50;;;17.70;42.60;;;;;;5095479;28;20467;-89
2021/05/22 14:49:09;;;;;;;1.70;0.70;;;17.70;42.00;;;;;;5095174;28;20558;-89
2021/05/22 14:51:36;;;;;;;1.27;0.60;;;17.80;43.10;;;;;;5096743;28;20510;-90
2021/05/22 14:54:02;;;;;;;6.00;0.73;;;17.80;42.90;;;;;;5096716;28;20491;-90
2021/05/22 14:56:29;;;;;;;0.90;0.70;;;17.80;42.50;;;;;;5098439;28;20573;-90
2021/05/22 14:58:55;;;;;;;1.37;0.60;;;17.80;41.10;;;;;;5099506;28;20481;-91
2021/05/22 15:01:22;;;;;;;1.03;0.60;;;17.90;43.30;;;;;;5099102;28;20474;-89
2021/05/22 15:03:49;;;;;;;1.33;0.67;;;17.90;41.90;;;;;;5100064;28;20960;-92
2021/05/22 15:06:15;;;;;;;6.10;1.00;;;18.00;42.80;;;;;;5101650;28;20457;-90
2021/05/22 15:08:43;;;;;;;1.00;0.70;;;18.00;41.70;;;;;;5101000;28;20480;-91
2021/05/22 15:11:09;;;;;;;1.47;0.73;;;17.70;43.00;;;;;;5101948;28;20465;-92
2021/05/22 15:13:41;;;;;;;2.50;0.60;;;17.50;42.40;;;;;;5116706;28;20465;-94
2021/05/22 15:16:14;;;;;;;0.70;0.60;;;17.40;43.30;;;;;;5117707;28;20540;-93
2021/05/22 15:18:59;;;;;;;3.03;0.73;;;17.30;43.30;;;;;;5114324;28;20491;-92
2021/05/22 15:21:26;;;;;;;1.47;0.80;;;17.40;44.00;;;;;;5114477;28;20887;-92
2021/05/22 15:23:55;;;;;;;2.40;0.60;;;17.60;43.10;;;;;;5105101;28;20507;-92
2021/05/22 15:26:22;;;;;;;0.60;0.50;;;17.70;42.60;;;;;;5103661;28;20537;-90
2021/05/22 15:28:48;;;;;;;2.40;0.47;;;17.50;44.50;;;;;;5103798;28;20564;-92
2021/05/22 15:31:17;;;;;;;4.10;0.80;;;17.50;45.60;;;;;;5103246;28;20543;-92
2021/05/22 15:33:45;;;;;;;2.10;0.80;;;17.30;43.30;;;;;;5103447;28;20832;-92
2021/05/22 15:39:10;;;;;;;2.53;0.97;;;16.60;43.50;;;;;;5108069;28;20479;-93
2021/05/22 15:41:49;;;;;;;0.90;0.70;;;16.50;45.60;;;;;;5113607;28;20436;-93
2021/05/22 15:57:53;;;;;;;0.83;0.50;;;17.10;43.10;;;;;;5037376;28;20548;-92
2021/05/22 16:00:21;;;;;;;3.70;1.20;;;17.20;45.10;;;;;;5036743;28;20525;-91
2021/05/22 16:03:04;;;;;;;1.10;0.70;;;17.30;45.10;;;;;;5036306;28;20832;-91
2021/05/22 16:05:42;;;;;;;0.80;0.70;;;17.20;43.90;;;;;;5034425;28;20466;-91
2021/05/22 16:08:10;;;;;;;1.47;0.60;;;17.00;41.80;;;;;;5036058;28;20539;-92
2021/05/22 16:10:36;;;;;;;0.63;0.50;;;17.10;46.10;;;;;;5036319;28;20553;-92
2021/05/22 16:13:02;;;;;;;3.70;0.60;;;17.20;45.50;;;;;;5035027;28;20474;-92
2021/05/22 16:15:29;;;;;;;3.57;0.90;;;17.20;46.60;;;;;;5034518;28;20472;-91
2021/05/22 16:17:58;;;;;;;0.80;0.60;;;17.10;45.60;;;;;;5034487;28;20518;-92
2021/05/22 16:20:24;;;;;;;1.60;0.90;;;17.00;46.50;;;;;;5034206;28;20896;-91
2021/05/22 16:22:51;;;;;;;3.03;1.80;;;16.90;46.40;;;;;;5034480;28;20467;-91
2021/05/22 16:25:18;;;;;;;1.53;0.67;;;16.90;48.20;;;;;;5034935;28;20566;-92
2021/05/22 16:27:45;;;;;;;0.80;0.67;;;16.90;47.80;;;;;;5034154;28;20449;-92
2021/05/22 16:30:12;;;;;;;1.10;0.63;;;16.90;48.30;;;;;;5034939;28;20482;-92
2021/05/22 16:32:38;;;;;;;3.50;0.90;;;17.00;46.10;;;;;;5034589;28;20574;-92
2021/05/22 16:35:06;;;;;;;1.93;0.53;;;16.90;46.60;;;;;;5033945;28;20461;-91
2021/05/22 17:07:45;;;;;;;3.37;1.40;;;16.40;43.50;;;;;;6230837;22;1420650;-92
2021/05/22 17:10:13;;;;;;;0.70;0.60;;;16.30;44.20;;;;;;6296265;22;20516;-91
2021/05/22 17:12:39;;;;;;;1.10;0.63;;;16.30;45.20;;;;;;6295192;22;20415;-91
2021/05/22 17:15:08;;;;;;;1.90;0.60;;;16.30;46.90;;;;;;6300763;22;20418;-93
2021/05/22 17:17:34;;;;;;;1.27;0.80;;;16.40;45.30;;;;;;6299306;22;20471;-93
2021/05/22 17:20:01;;;;;;;7.70;0.73;;;16.30;45.10;;;;;;6298976;22;20438;-94
2021/05/22 17:22:27;;;;;;;2.07;0.50;;;16.30;45.90;;;;;;6210079;22;20444;-93
2021/05/22 17:24:54;;;;;;;1.20;0.67;;;16.30;46.50;;;;;;6266055;22;20565;-94
2021/05/22 17:27:21;;;;;;;2.30;0.60;;;16.20;44.40;;;;;;6265102;22;20502;-91
2021/05/22 17:29:47;;;;;;;0.90;0.60;;;16.20;46.10;;;;;;6256362;22;20489;-93
2021/05/22 17:32:13;;;;;;;1.97;0.57;;;16.20;46.50;;;;;;6265748;22;20422;-93
2021/05/22 17:34:40;;;;;;;1.17;0.80;;;16.10;45.30;;;;;;6267560;22;20425;-94
2021/05/22 17:37:07;;;;;;;0.83;0.77;;;16.10;45.40;;;;;;6267001;22;20430;-94
2021/05/22 17:39:33;;;;;;;2.07;0.63;;;16.10;46.40;;;;;;6266230;22;20782;-93
2021/05/22 17:42:00;;;;;;;0.60;0.57;;;16.00;45.80;;;;;;6266988;22;20427;-92
2021/05/22 17:44:27;;;;;;;0.73;0.57;;;15.90;44.40;;;;;;6265849;22;20434;-93
2021/05/22 17:46:53;;;;;;;1.87;0.60;;;15.90;45.40;;;;;;6266222;22;20448;-94
2021/05/22 17:49:22;;;;;;;1.93;0.67;;;15.90;45.30;;;;;;6267076;22;20784;-93
2021/05/22 17:51:48;;;;;;;1.53;0.70;;;15.90;44.80;;;;;;6269687;22;20419;-92
2021/05/22 17:54:18;;;;;;;2.13;0.57;;;15.90;46.00;;;;;;6272206;22;20494;-93
2021/05/22 21:12:29;;;;;;;2.83;1.93;;;11.80;59.20;;;;;;6189368;22;20486;-92
2021/05/22 21:14:56;;;;;;;2.50;1.10;;;11.80;59.10;;;;;;6247531;23;20444;-93
2021/05/22 21:17:23;;;;;;;1.40;1.30;;;11.70;59.10;;;;;;6241269;23;20440;-92
2021/05/22 21:19:50;;;;;;;2.20;1.37;;;11.70;59.10;;;;;;6240880;23;20441;-92
2021/05/22 21:22:17;;;;;;;1.23;1.13;;;11.70;59.50;;;;;;6230439;22;20764;-91
2021/05/22 21:24:43;;;;;;;2.57;2.30;;;11.60;59.50;;;;;;6226845;23;20441;-92
2021/05/22 21:27:09;;;;;;;4.73;3.20;;;11.60;59.30;;;;;;6238153;23;20925;-93
2021/05/22 21:29:36;;;;;;;3.30;1.70;;;11.60;59.40;;;;;;6228068;23;20444;-93
2021/05/22 21:32:03;;;;;;;1.57;1.47;;;11.60;59.60;;;;;;6227724;23;20428;-93
2021/05/22 21:34:29;;;;;;;1.90;1.50;;;11.60;59.90;;;;;;6227334;23;20427;-93
2021/05/22 21:36:56;;;;;;;1.53;1.20;;;11.60;60.30;;;;;;6227248;23;20499;-92
2021/05/22 21:39:23;;;;;;;1.00;0.73;;;11.60;61.00;;;;;;6226405;23;21049;-93
2021/05/22 21:41:51;;;;;;;3.53;1.40;;;11.50;61.10;;;;;;6228397;23;20450;-92
2021/05/22 21:44:18;;;;;;;7.00;1.40;;;11.50;61.10;;;;;;6228301;23;20444;-92
2021/05/22 21:46:45;;;;;;;4.00;1.30;;;11.50;61.20;;;;;;6228567;23;20424;-92
2021/05/22 21:49:18;;;;;;;6.20;2.37;;;11.50;62.20;;;;;;6233992;22;20440;-96
2021/05/22 21:51:58;;;;;;;1.40;1.30;;;11.40;62.10;;;;;;6255802;22;20408;-95
2021/05/22 21:54:42;;;;;;;4.40;1.23;;;11.40;62.20;;;;;;6255763;22;20398;-95
2021/05/22 22:00:03;;;;;;;0.80;0.80;;;11.40;61.90;;;;;;6215721;22;20419;-96
2021/05/22 22:02:43;;;;;;;1.43;1.10;;;11.40;62.50;;;;;;6257028;23;20377;-95
2021/05/22 22:05:10;;;;;;;1.03;1.03;;;11.40;63.00;;;;;;6257023;22;20387;-95
2021/05/22 22:10:18;;;;;;;2.90;1.20;;;11.40;64.30;;;;;;6156062;23;20411;-94
2021/05/22 22:12:49;;;;;;;2.23;1.03;;;11.30;66.20;;;;;;6165526;23;20395;-93
2021/05/22 22:18:58;;;;;;;4.70;0.90;;;11.20;67.40;;;;;;6117032;23;20458;-94
2021/05/22 22:22:01;;;;;;;3.03;0.83;;;11.10;69.90;;;;;;6165563;23;20402;-96
2021/05/22 22:24:49;;;;;;;1.10;0.90;;;11.00;71.90;;;;;;6165014;23;20449;-96
2021/05/22 22:27:35;;;;;;;5.27;1.03;;;10.90;72.70;;;;;;6165473;23;20395;-95
2021/05/22 22:30:21;;;;;;;;;;;;;;;;;;;;;
2021/05/22 22:38:29;;;;;;;0.70;0.70;;;10.70;74.00;;;;;;6202992;23;20428;-93
2021/05/22 22:41:34;;;;;;;0.60;0.60;;;10.70;74.30;;;;;;6226372;23;20392;-95
2021/05/22 22:44:04;;;;;;;0.97;0.97;;;10.70;74.80;;;;;;6226184;23;20401;-95
2021/05/22 22:46:53;;;;;;;1.73;0.90;;;10.60;75.60;;;;;;6226487;23;20390;-94
2021/05/22 22:50:24;;;;;;;0.70;0.70;;;10.60;75.10;;;;;;6226232;23;20418;-94
2021/05/22 22:53:29;;;;;;;1.20;1.10;;;10.60;75.20;;;;;;6096828;23;20390;-96
2021/05/22 23:03:22;;;;;;;0.73;0.70;;;10.60;77.80;;;;;;6147088;23;20382;-95
2021/05/22 23:06:36;;;;;;;7.77;1.40;;;10.50;78.60;;;;;;6226216;23;20382;-95
2021/05/22 23:09:36;;;;;;;2.17;0.93;;;10.50;79.50;;;;;;6199739;23;20416;-96
2021/05/22 23:25:42;;;;;;;1.10;1.10;;;10.10;82.00;;;;;;6275475;23;20426;-95
2021/05/22 23:28:46;;;;;;;0.90;0.90;;;10.00;82.30;;;;;;6286623;23;20410;-93
2021/05/22 23:31:46;;;;;;;4.67;0.90;;;10.00;82.70;;;;;;6270278;23;20387;-94
2021/05/22 23:34:47;;;;;;;;;;;;;;;;;;;;;
2021/05/22 23:44:22;;;;;;;1.27;0.90;;;9.80;84.80;;;;;;6242268;23;20411;-93
2021/05/22 23:47:00;;;;;;;0.80;0.80;;;9.80;84.70;;;;;;6286722;23;20439;-94
2021/05/22 23:49:48;;;;;;;2.87;0.90;;;9.80;84.70;;;;;;6286635;23;20399;-94
2021/05/22 23:52:28;;;;;;;0.70;0.70;;;9.70;84.60;;;;;;6286691;23;20380;-92
2021/05/22 23:55:02;;;;;;;1.80;0.70;;;9.70;84.60;;;;;;6286554;23;20380;-94
2021/05/22 23:57:45;;;;;;;0.50;0.50;;;9.70;85.00;;;;;;6286436;23;20410;-92
